Time;durP1;ratioP1;P1;durP2;ratioP2;P2;SDS_P1;SDS_P2;PMS_P1;PMS_P2;Temp;Humidity;BMP_temperature;BMP_pressure;BME280_temperature;BME280_humidity;BME280_pressure;Samples;Min_cycle;Max_cycle;Signal;HPM_P1;HPM_P2
2023/01/04 00:01:34;;;;;;;3.80;1.53;;;8.80;99.90;;;;;;4957354;29;20549;-87
2023/01/04 00:04:00;;;;;;;4.23;1.20;;;8.80;99.90;;;;;;4956925;28;20188;-86
2023/01/04 00:06:26;;;;;;;8.10;1.60;;;8.80;99.90;;;;;;4956709;28;20240;-87
2023/01/04 00:08:52;;;;;;;3.30;1.20;;;8.80;99.90;;;;;;4941259;29;20216;-87
2023/01/04 00:11:20;;;;;;;2.85;1.25;;;8.80;99.90;;;;;;4940839;29;20680;-89
2023/01/04 00:13:47;;;;;;;3.53;1.02;;;8.80;99.90;;;;;;4940588;29;20189;-87
2023/01/04 00:16:19;;;;;;;2.58;1.42;;;8.80;99.90;;;;;;4958203;29;20176;-87
2023/01/04 00:18:45;;;;;;;4.30;1.10;;;8.90;99.90;;;;;;4958140;29;20281;-87
2023/01/04 00:21:17;;;;;;;4.73;1.27;;;8.90;99.90;;;;;;4958344;29;20275;-87
2023/01/04 00:23:45;;;;;;;4.15;2.17;;;8.90;99.90;;;;;;4958021;28;20408;-87
2023/01/04 00:26:13;;;;;;;2.08;1.13;;;8.90;99.90;;;;;;4940412;29;20181;-87
2023/01/04 00:28:39;;;;;;;1.83;1.10;;;8.90;99.90;;;;;;4957633;29;20220;-87
2023/01/04 00:31:07;;;;;;;3.25;1.33;;;8.90;99.90;;;;;;4956511;29;20185;-87
2023/01/04 00:33:33;;;;;;;6.95;2.03;;;8.90;99.90;;;;;;4957666;29;20177;-87
2023/01/04 00:36:03;;;;;;;2.10;1.17;;;9.00;99.90;;;;;;4957774;29;20251;-87
2023/01/04 00:38:29;;;;;;;7.80;1.33;;;8.90;99.90;;;;;;4940361;29;20436;-87
2023/01/04 00:40:55;;;;;;;6.93;1.70;;;8.90;99.90;;;;;;4957612;29;20200;-87
2023/01/04 00:43:20;;;;;;;5.70;1.23;;;8.90;99.90;;;;;;4956622;29;20239;-87
2023/01/04 00:45:46;;;;;;;3.47;1.20;;;9.00;99.90;;;;;;4956181;29;20185;-87
2023/01/04 00:48:11;;;;;;;6.50;1.63;;;9.00;99.90;;;;;;4956235;29;20606;-87
2023/01/04 00:50:37;;;;;;;3.43;1.30;;;9.00;99.90;;;;;;4956064;29;20181;-87
2023/01/04 00:53:03;;;;;;;6.00;1.60;;;9.10;99.90;;;;;;4956813;29;20196;-87
2023/01/04 00:55:29;;;;;;;3.67;1.50;;;9.10;99.90;;;;;;4939848;29;20188;-86
2023/01/04 00:57:55;;;;;;;9.00;1.40;;;9.00;99.90;;;;;;4957183;29;20181;-88
2023/01/04 01:00:22;;;;;;;4.23;1.03;;;9.00;99.90;;;;;;4939715;29;20570;-87
2023/01/04 01:02:47;;;;;;;4.28;1.17;;;9.00;99.90;;;;;;4955676;29;20185;-88
2023/01/04 01:05:13;;;;;;;3.23;1.50;;;9.00;99.90;;;;;;4955854;29;20601;-87
2023/01/04 01:07:39;;;;;;;4.23;1.10;;;9.00;99.90;;;;;;4955665;29;20213;-88
2023/01/04 01:10:05;;;;;;;2.90;1.10;;;9.00;99.90;;;;;;4956196;29;20192;-87
2023/01/04 01:12:30;;;;;;;9.82;1.70;;;9.00;99.90;;;;;;4955518;29;20193;-87
2023/01/04 01:14:56;;;;;;;2.47;1.13;;;9.00;99.90;;;;;;4940121;28;20193;-88
2023/01/04 01:17:21;;;;;;;2.83;1.20;;;9.00;99.90;;;;;;4955413;29;20177;-87
2023/01/04 01:19:47;;;;;;;3.87;1.00;;;9.10;99.90;;;;;;4956629;29;20196;-87
2023/01/04 01:22:13;;;;;;;3.03;1.30;;;9.20;99.90;;;;;;4957119;29;20583;-87
2023/01/04 01:24:38;;;;;;;4.97;1.80;;;9.20;99.90;;;;;;4939473;29;20205;-88
2023/01/04 01:27:04;;;;;;;3.33;1.30;;;9.30;99.90;;;;;;4939523;29;20181;-87
2023/01/04 01:29:29;;;;;;;6.30;1.57;;;9.30;99.90;;;;;;4939331;29;20242;-87
2023/01/04 01:31:55;;;;;;;4.40;1.20;;;9.40;99.90;;;;;;4955674;29;20253;-88
2023/01/04 01:34:21;;;;;;;3.80;1.20;;;9.40;99.90;;;;;;4956041;29;20200;-87
2023/01/04 01:36:46;;;;;;;1.73;0.97;;;9.40;99.90;;;;;;4939451;29;20220;-87
2023/01/04 01:39:12;;;;;;;2.43;1.10;;;9.40;99.90;;;;;;4939392;29;20468;-86
2023/01/04 01:41:38;;;;;;;2.80;1.23;;;9.40;99.90;;;;;;4956592;29;20200;-86
2023/01/04 01:44:42;;;;;;;1.50;1.00;;;9.40;99.90;;;;;;4955541;29;20190;-87
2023/01/04 01:47:25;;;;;;;6.65;1.02;;;9.40;99.90;;;;;;4956580;28;20420;-86
2023/01/04 01:49:53;;;;;;;3.45;1.00;;;9.40;99.90;;;;;;4956739;28;20200;-86
2023/01/04 01:52:31;;;;;;;3.83;1.10;;;9.30;99.90;;;;;;4955482;29;20192;-86
2023/01/04 01:55:00;;;;;;;2.47;1.15;;;9.30;99.90;;;;;;4955120;29;20275;-86
2023/01/04 01:57:29;;;;;;;4.28;0.85;;;9.40;99.90;;;;;;4955314;29;20184;-86
2023/01/04 01:59:59;;;;;;;1.45;0.80;;;9.30;99.90;;;;;;4956270;29;20549;-86
2023/01/04 02:02:25;;;;;;;4.22;1.17;;;9.40;99.90;;;;;;4956644;29;20519;-86
2023/01/04 02:04:51;;;;;;;3.80;1.10;;;9.40;99.90;;;;;;4956138;28;20189;-86
2023/01/04 02:07:24;;;;;;;2.33;1.10;;;9.50;99.90;;;;;;4958355;28;20251;-86
2023/01/04 02:09:50;;;;;;;2.55;1.17;;;9.60;99.90;;;;;;4957721;28;20195;-87
2023/01/04 02:12:16;;;;;;;2.35;0.82;;;9.60;99.90;;;;;;4975431;28;20180;-86
2023/01/04 02:14:44;;;;;;;4.07;1.20;;;9.70;99.90;;;;;;4957690;28;20657;-86
2023/01/04 02:17:15;;;;;;;1.45;0.82;;;9.80;99.90;;;;;;4958108;28;20416;-87
2023/01/04 02:19:55;;;;;;;1.77;1.00;;;9.80;99.90;;;;;;4973508;28;20215;-86
2023/01/04 02:22:58;;;;;;;1.20;1.00;;;9.90;99.90;;;;;;4951786;28;20267;-87
2023/01/04 02:25:57;;;;;;;1.95;1.08;;;9.90;99.90;;;;;;4973902;28;20188;-86
2023/01/04 02:28:28;;;;;;;3.33;1.05;;;9.80;99.90;;;;;;4978298;28;20170;-86
2023/01/04 02:31:16;;;;;;;4.72;0.80;;;9.80;99.90;;;;;;4961563;28;20550;-86
2023/01/04 02:33:56;;;;;;;1.27;1.10;;;9.80;99.90;;;;;;4978881;28;20167;-87
2023/01/04 02:36:28;;;;;;;1.52;0.80;;;9.80;99.90;;;;;;4961672;28;20188;-86
2023/01/04 02:39:08;;;;;;;3.60;0.80;;;9.80;99.90;;;;;;4961360;28;20176;-86
2023/01/04 02:41:43;;;;;;;1.35;0.93;;;9.80;99.90;;;;;;4978668;28;20262;-87
2023/01/04 02:47:17;;;;;;;0.70;0.50;;;9.90;99.90;;;;;;4978856;28;20211;-86
2023/01/04 02:52:34;;;;;;;2.30;1.00;;;10.00;99.90;;;;;;4937092;28;20532;-87
2023/01/04 02:55:03;;;;;;;1.00;0.70;;;10.00;99.90;;;;;;4961547;28;20271;-85
2023/01/04 02:57:40;;;;;;;0.93;0.82;;;10.00;99.90;;;;;;4978455;28;20267;-86
2023/01/04 03:00:25;;;;;;;2.05;0.90;;;10.00;99.90;;;;;;4961595;28;20212;-86
2023/01/04 03:06:15;;;;;;;0.95;0.57;;;10.00;99.90;;;;;;4978237;28;20282;-86
2023/01/04 03:09:12;;;;;;;1.80;0.80;;;10.00;99.90;;;;;;4960898;28;20184;-88
2023/01/04 03:14:35;;;;;;;1.30;0.50;;;10.00;99.90;;;;;;4978696;28;20180;-86
2023/01/04 03:17:04;;;;;;;0.90;0.57;;;10.00;99.90;;;;;;4961656;28;20606;-86
2023/01/04 03:19:50;;;;;;;0.60;0.50;;;10.00;99.90;;;;;;4961037;28;20674;-85
2023/01/04 03:36:32;;;;;;;0.90;0.60;;;10.00;99.90;;;;;;4963569;28;20223;-86
2023/01/04 03:48:30;;;;;;;0.70;0.60;;;10.00;99.90;;;;;;4977998;28;20172;-86
2023/01/04 03:51:09;;;;;;;0.75;0.52;;;10.00;99.90;;;;;;4977824;28;20184;-86
2023/01/04 03:53:54;;;;;;;0.70;0.55;;;10.00;99.90;;;;;;4960772;28;20184;-86
2023/01/04 03:56:23;;;;;;;0.75;0.50;;;10.00;99.90;;;;;;4977661;28;20188;-86
2023/01/04 03:58:50;;;;;;;0.90;0.50;;;10.00;99.90;;;;;;4977442;28;20184;-85
2023/01/04 04:01:18;;;;;;;0.60;0.60;;;9.90;99.90;;;;;;4944455;28;20238;-86
2023/01/04 04:09:12;;;;;;;1.05;0.50;;;9.80;99.90;;;;;;4977985;28;20255;-85
2023/01/04 04:11:37;;;;;;;1.40;0.50;;;9.80;99.90;;;;;;4944551;28;20223;-86
2023/01/04 04:14:03;;;;;;;0.70;0.50;;;9.70;99.90;;;;;;4960611;28;20176;-84
2023/01/04 04:16:29;;;;;;;0.70;0.50;;;9.70;99.90;;;;;;4960357;28;20208;-85
2023/01/04 04:18:55;;;;;;;0.70;0.50;;;9.60;99.90;;;;;;4977534;28;20227;-83
2023/01/04 04:21:20;;;;;;;0.87;0.50;;;9.50;99.90;;;;;;4977855;28;20184;-83
2023/01/04 04:23:46;;;;;;;0.80;0.50;;;9.50;99.90;;;;;;4928991;28;20482;-84
2023/01/04 04:26:11;;;;;;;1.30;0.50;;;9.50;99.90;;;;;;4944170;28;20192;-84
2023/01/04 04:28:38;;;;;;;0.90;0.60;;;9.50;99.90;;;;;;4960723;28;20263;-84
2023/01/04 04:31:04;;;;;;;0.60;0.40;;;9.50;99.90;;;;;;4977507;28;20184;-84
2023/01/04 04:33:30;;;;;;;0.70;0.50;;;9.50;99.90;;;;;;4960242;28;20184;-84
2023/01/04 04:35:55;;;;;;;0.60;0.50;;;9.50;99.90;;;;;;4977885;28;20188;-83
2023/01/04 04:38:21;;;;;;;0.57;0.43;;;9.50;99.90;;;;;;4959577;28;20192;-85
2023/01/04 04:43:33;;;;;;;0.95;0.50;;;9.40;99.90;;;;;;4977433;28;20271;-84
2023/01/04 04:45:58;;;;;;;0.60;0.47;;;9.50;99.90;;;;;;4976659;28;20184;-84
2023/01/04 04:48:24;;;;;;;0.50;0.40;;;9.40;99.90;;;;;;4959601;28;20187;-85
2023/01/04 04:50:50;;;;;;;0.50;0.40;;;9.50;99.90;;;;;;4958544;28;20695;-84
2023/01/04 04:53:15;;;;;;;1.50;0.60;;;9.50;99.90;;;;;;4960015;28;20195;-85
2023/01/04 04:55:41;;;;;;;0.80;0.50;;;9.50;99.90;;;;;;4976455;28;20176;-85
2023/01/04 04:58:07;;;;;;;0.50;0.40;;;9.60;99.90;;;;;;4959883;28;20184;-85
2023/01/04 05:00:32;;;;;;;0.70;0.50;;;9.60;99.90;;;;;;4943536;28;20470;-85
2023/01/04 05:02:59;;;;;;;0.50;0.40;;;9.60;99.90;;;;;;4943762;28;20246;-85
2023/01/04 05:05:25;;;;;;;0.50;0.40;;;9.60;99.90;;;;;;4943349;28;20688;-86
2023/01/04 05:07:50;;;;;;;1.27;1.17;;;9.70;99.90;;;;;;4959284;28;20188;-85
2023/01/04 05:10:16;;;;;;;0.50;0.50;;;9.70;99.90;;;;;;4976390;28;20184;-85
2023/01/04 05:12:59;;;;;;;0.60;0.50;;;9.70;99.90;;;;;;4927531;28;20184;-86
2023/01/04 05:15:32;;;;;;;0.50;0.40;;;9.70;99.90;;;;;;4976549;28;20171;-85
2023/01/04 05:17:58;;;;;;;1.40;0.50;;;9.70;99.90;;;;;;4959068;28;20506;-85
2023/01/04 05:20:24;;;;;;;0.60;0.50;;;9.80;99.90;;;;;;4958462;28;20214;-85
2023/01/04 05:22:49;;;;;;;0.60;0.50;;;9.80;99.90;;;;;;4975726;28;20196;-85
2023/01/04 05:25:15;;;;;;;0.67;0.40;;;9.90;99.90;;;;;;4959024;28;20184;-84
2023/01/04 05:27:40;;;;;;;0.50;0.40;;;9.90;99.90;;;;;;4976277;28;20211;-84
2023/01/04 05:32:53;;;;;;;0.50;0.40;;;10.00;99.90;;;;;;4975910;28;20178;-84
2023/01/04 05:35:18;;;;;;;0.50;0.40;;;10.00;99.90;;;;;;4959097;28;20700;-84
2023/01/04 05:37:44;;;;;;;1.43;0.60;;;10.10;99.90;;;;;;4975834;28;20184;-84
2023/01/04 05:40:10;;;;;;;0.50;0.40;;;10.20;99.90;;;;;;4926556;28;20211;-85
2023/01/04 05:42:35;;;;;;;1.83;0.50;;;10.20;99.90;;;;;;4958792;28;20192;-84
2023/01/04 05:45:01;;;;;;;1.27;0.50;;;10.20;99.90;;;;;;4975639;28;20187;-86
2023/01/04 05:47:27;;;;;;;0.50;0.40;;;10.30;99.90;;;;;;4942628;28;20180;-85
2023/01/04 05:49:52;;;;;;;0.88;0.50;;;10.30;99.90;;;;;;4975313;28;20655;-85
2023/01/04 05:52:19;;;;;;;1.43;0.50;;;10.30;99.90;;;;;;4942614;28;20191;-86
2023/01/04 05:54:45;;;;;;;1.52;0.45;;;10.30;99.90;;;;;;4942170;28;20210;-86
2023/01/04 05:57:10;;;;;;;0.60;0.50;;;10.30;99.90;;;;;;4975996;28;20274;-85
2023/01/04 05:59:37;;;;;;;0.50;0.40;;;10.30;99.90;;;;;;4958865;28;20455;-84
2023/01/04 06:02:03;;;;;;;0.60;0.47;;;10.30;99.90;;;;;;4957676;28;20539;-85
2023/01/04 06:04:29;;;;;;;0.50;0.40;;;10.30;99.90;;;;;;4942867;28;20239;-84
2023/01/04 06:06:55;;;;;;;0.70;0.50;;;10.30;99.90;;;;;;4975384;28;20239;-85
2023/01/04 06:09:20;;;;;;;0.83;0.70;;;10.30;99.90;;;;;;4975774;28;20188;-85
2023/01/04 06:11:46;;;;;;;0.60;0.50;;;10.30;99.90;;;;;;4958418;28;20222;-86
2023/01/04 06:14:12;;;;;;;0.60;0.50;;;10.30;99.90;;;;;;4958184;28;20180;-85
2023/01/04 06:16:37;;;;;;;1.00;0.50;;;10.40;99.90;;;;;;4942215;28;20250;-85
2023/01/04 06:19:03;;;;;;;0.60;0.40;;;10.40;99.90;;;;;;4939021;28;21280;-86
2023/01/04 06:21:29;;;;;;;0.70;0.50;;;10.40;99.90;;;;;;4940817;28;20424;-85
2023/01/04 06:23:54;;;;;;;2.90;0.40;;;10.40;99.90;;;;;;4942106;28;20259;-85
2023/01/04 06:26:20;;;;;;;0.60;0.50;;;10.40;99.90;;;;;;4942070;28;20564;-84
2023/01/04 06:28:46;;;;;;;1.43;0.50;;;10.50;99.90;;;;;;4941831;28;20188;-87
2023/01/04 06:31:12;;;;;;;0.70;0.50;;;10.50;99.90;;;;;;4975380;28;20627;-85
2023/01/04 06:33:37;;;;;;;0.60;0.50;;;10.50;99.90;;;;;;4958261;28;20211;-85
2023/01/04 06:36:03;;;;;;;1.00;0.50;;;10.50;99.90;;;;;;4941581;28;20195;-85
2023/01/04 06:38:29;;;;;;;0.60;0.50;;;10.50;99.90;;;;;;4975477;28;20207;-84
2023/01/04 06:40:55;;;;;;;1.05;0.50;;;10.50;99.90;;;;;;4975087;28;20212;-85
2023/01/04 06:43:20;;;;;;;0.50;0.40;;;10.50;99.90;;;;;;4942511;28;20188;-85
2023/01/04 06:45:46;;;;;;;0.50;0.40;;;10.60;99.90;;;;;;4925939;28;20188;-84
2023/01/04 06:48:12;;;;;;;0.60;0.50;;;10.60;99.90;;;;;;4942174;28;20184;-85
2023/01/04 06:50:37;;;;;;;0.77;0.53;;;10.60;99.90;;;;;;4958374;28;20188;-85
2023/01/04 06:53:03;;;;;;;0.50;0.43;;;10.70;99.90;;;;;;4975026;28;20188;-84
2023/01/04 06:55:29;;;;;;;0.60;0.40;;;10.70;99.90;;;;;;4957749;28;20185;-85
2023/01/04 06:57:55;;;;;;;0.80;0.50;;;10.70;99.90;;;;;;4957979;28;20192;-85
2023/01/04 07:00:21;;;;;;;0.60;0.50;;;10.70;99.90;;;;;;4925776;28;20212;-85
2023/01/04 07:02:46;;;;;;;0.60;0.50;;;10.70;99.90;;;;;;4975206;28;20652;-84
2023/01/04 07:05:12;;;;;;;0.90;0.47;;;10.70;99.90;;;;;;4974740;28;20459;-84
2023/01/04 07:07:38;;;;;;;0.70;0.40;;;10.70;99.90;;;;;;4957859;28;20188;-84
2023/01/04 07:10:04;;;;;;;0.90;0.60;;;10.70;99.90;;;;;;4925873;28;20211;-85
2023/01/04 07:12:30;;;;;;;0.70;0.60;;;10.70;99.90;;;;;;4958066;28;20184;-85
2023/01/04 07:14:56;;;;;;;0.80;0.50;;;10.70;99.90;;;;;;4977007;28;20192;-85
2023/01/04 07:17:21;;;;;;;0.60;0.50;;;10.70;99.90;;;;;;4978427;28;20664;-85
2023/01/04 07:19:47;;;;;;;0.70;0.40;;;10.70;99.90;;;;;;4945277;28;20208;-85
2023/01/04 07:22:12;;;;;;;0.73;0.60;;;10.70;99.90;;;;;;4978207;28;20608;-85
2023/01/04 07:24:38;;;;;;;0.70;0.50;;;10.70;99.90;;;;;;4978251;28;20184;-85
2023/01/04 07:27:03;;;;;;;1.93;0.50;;;10.70;99.90;;;;;;4944696;28;20271;-85
2023/01/04 07:29:29;;;;;;;0.70;0.50;;;10.80;99.90;;;;;;4977854;28;20192;-85
2023/01/04 07:31:55;;;;;;;0.77;0.50;;;10.80;99.90;;;;;;4944773;28;20180;-85
2023/01/04 07:34:23;;;;;;;0.60;0.40;;;10.80;99.90;;;;;;4961182;28;20188;-85
2023/01/04 07:36:49;;;;;;;0.60;0.50;;;10.80;99.90;;;;;;4978074;28;20236;-83
2023/01/04 07:39:18;;;;;;;2.20;0.60;;;10.80;99.90;;;;;;4961148;28;20283;-82
2023/01/04 07:41:44;;;;;;;0.60;0.50;;;10.90;99.90;;;;;;4961766;28;20184;-81
2023/01/04 07:44:11;;;;;;;0.60;0.50;;;10.90;99.90;;;;;;4978327;28;20616;-84
2023/01/04 07:46:37;;;;;;;0.70;0.50;;;10.90;99.90;;;;;;4961383;28;20825;-84
2023/01/04 07:49:04;;;;;;;0.70;0.50;;;11.00;99.90;;;;;;4960615;28;20617;-85
2023/01/04 07:51:31;;;;;;;0.60;0.50;;;10.90;99.90;;;;;;4961701;28;20183;-84
2023/01/04 07:53:57;;;;;;;0.60;0.50;;;11.00;99.90;;;;;;4961610;28;20191;-85
2023/01/04 07:56:22;;;;;;;0.60;0.50;;;11.00;99.90;;;;;;4961487;28;20541;-85
2023/01/04 07:58:48;;;;;;;0.60;0.53;;;11.00;99.90;;;;;;4961372;28;20184;-84
2023/01/04 08:01:16;;;;;;;0.60;0.50;;;11.10;99.90;;;;;;4960787;28;20641;-85
2023/01/04 08:03:43;;;;;;;0.55;0.47;;;11.10;99.90;;;;;;4977947;28;20192;-85
2023/01/04 08:06:11;;;;;;;1.08;0.50;;;11.10;99.90;;;;;;4960530;28;20228;-84
2023/01/04 08:08:37;;;;;;;0.70;0.40;;;11.10;99.90;;;;;;4960776;28;20184;-85
2023/01/04 08:11:04;;;;;;;0.70;0.50;;;11.10;99.90;;;;;;4944609;28;20244;-85
2023/01/04 08:13:30;;;;;;;1.50;0.60;;;11.10;99.90;;;;;;4977861;28;20510;-85
2023/01/04 08:15:56;;;;;;;0.70;0.60;;;11.20;99.90;;;;;;4977612;28;20216;-85
2023/01/04 08:18:22;;;;;;;0.60;0.50;;;11.20;99.90;;;;;;4960828;28;20239;-84
2023/01/04 08:20:48;;;;;;;0.60;0.50;;;11.20;99.90;;;;;;4960693;28;20580;-84
2023/01/04 08:23:13;;;;;;;0.60;0.40;;;11.20;99.90;;;;;;4977893;28;20200;-85
2023/01/04 08:25:39;;;;;;;0.60;0.50;;;11.20;99.90;;;;;;4959739;28;20565;-84
2023/01/04 08:28:04;;;;;;;1.03;0.80;;;11.30;99.90;;;;;;4960167;28;20196;-84
2023/01/04 08:30:30;;;;;;;0.77;0.60;;;11.30;99.90;;;;;;4959698;28;20573;-85
2023/01/04 08:32:56;;;;;;;0.87;0.67;;;11.20;99.90;;;;;;4959849;28;20195;-84
2023/01/04 08:35:22;;;;;;;0.83;0.50;;;11.30;99.90;;;;;;4977066;28;20431;-85
2023/01/04 08:37:48;;;;;;;1.10;0.60;;;11.30;99.90;;;;;;4959725;28;20195;-83
2023/01/04 08:40:14;;;;;;;0.60;0.60;;;11.30;99.90;;;;;;4976665;28;20463;-83
2023/01/04 08:42:39;;;;;;;0.80;0.50;;;11.40;99.90;;;;;;4959948;28;20771;-84
2023/01/04 08:45:06;;;;;;;0.90;0.63;;;11.40;99.90;;;;;;4943608;28;20570;-82
2023/01/04 08:47:32;;;;;;;0.70;0.60;;;11.50;99.90;;;;;;4959325;28;20271;-86
2023/01/04 08:49:58;;;;;;;1.20;0.50;;;11.50;99.90;;;;;;4959000;28;20223;-84
2023/01/04 08:52:24;;;;;;;0.73;0.60;;;11.50;99.90;;;;;;4959583;28;20416;-83
2023/01/04 08:54:50;;;;;;;0.60;0.57;;;11.60;99.90;;;;;;4959601;28;20215;-83
2023/01/04 08:57:17;;;;;;;1.00;0.60;;;11.60;99.90;;;;;;4927423;28;20220;-83
2023/01/04 08:59:42;;;;;;;1.27;0.60;;;11.70;99.90;;;;;;4959138;28;20212;-83
2023/01/04 09:02:25;;;;;;;0.70;0.60;;;11.80;99.90;;;;;;4959145;28;20199;-83
2023/01/04 09:04:51;;;;;;;0.80;0.80;;;12.00;99.90;;;;;;4959099;28;20270;-84
2023/01/04 09:07:16;;;;;;;0.60;0.50;;;12.00;99.90;;;;;;4976522;28;20204;-82
2023/01/04 09:09:42;;;;;;;0.93;0.70;;;12.20;99.90;;;;;;4943284;28;20191;-84
2023/01/04 09:12:08;;;;;;;0.60;0.40;;;12.40;99.90;;;;;;4958946;28;20436;-84
2023/01/04 09:14:34;;;;;;;0.67;0.50;;;12.50;99.90;;;;;;4943079;28;20199;-84
2023/01/04 09:16:59;;;;;;;0.60;0.40;;;12.50;99.90;;;;;;4976228;28;20207;-84
2023/01/04 09:19:25;;;;;;;0.83;0.50;;;12.60;99.90;;;;;;4943344;28;20216;-81
2023/01/04 09:21:50;;;;;;;0.60;0.50;;;12.70;99.90;;;;;;4959173;28;20334;-81
2023/01/04 09:24:16;;;;;;;0.60;0.50;;;12.70;99.90;;;;;;4959017;28;20282;-82
2023/01/04 09:26:41;;;;;;;0.70;0.50;;;12.80;99.90;;;;;;4943141;28;20185;-82
2023/01/04 09:29:10;;;;;;;0.60;0.40;;;12.80;99.90;;;;;;4958795;28;20605;-82
2023/01/04 09:31:35;;;;;;;1.17;0.50;;;12.80;99.90;;;;;;4958730;28;20267;-82
2023/01/04 09:34:01;;;;;;;0.90;0.50;;;12.80;99.90;;;;;;4942763;28;20831;-82
2023/01/04 09:36:27;;;;;;;1.27;0.50;;;12.90;99.90;;;;;;4958421;28;20194;-82
2023/01/04 09:38:53;;;;;;;0.63;0.50;;;12.80;99.90;;;;;;4976431;28;20276;-82
2023/01/04 09:41:29;;;;;;;0.95;0.60;;;12.90;99.90;;;;;;4958232;28;20224;-83
2023/01/04 09:44:03;;;;;;;1.30;0.50;;;12.90;99.90;;;;;;4959151;28;20524;-82
2023/01/04 09:46:49;;;;;;;0.77;0.50;;;12.90;99.90;;;;;;4976128;28;20398;-82
2023/01/04 09:49:37;;;;;;;1.60;0.63;;;12.90;99.90;;;;;;4975590;28;20427;-82
2023/01/04 09:52:16;;;;;;;1.70;0.80;;;12.90;99.90;;;;;;4950385;28;20212;-81
2023/01/04 09:54:46;;;;;;;0.60;0.40;;;12.90;99.90;;;;;;4958676;28;20184;-83
2023/01/04 09:57:34;;;;;;;1.25;0.65;;;12.90;99.90;;;;;;4975812;28;20411;-85
2023/01/04 10:00:25;;;;;;;1.13;0.80;;;12.90;99.90;;;;;;4964854;28;20281;-83
2023/01/04 10:02:57;;;;;;;0.70;0.60;;;12.90;99.90;;;;;;4965233;28;20196;-83
2023/01/04 10:05:27;;;;;;;0.90;0.60;;;12.90;99.90;;;;;;4975184;28;20231;-85
2023/01/04 10:07:53;;;;;;;0.87;0.57;;;12.80;99.90;;;;;;4975289;28;20896;-84
2023/01/04 10:10:47;;;;;;;1.90;0.70;;;12.80;99.90;;;;;;4958015;28;20474;-84
2023/01/04 10:13:19;;;;;;;1.40;0.50;;;12.90;99.90;;;;;;4975590;28;20168;-83
2023/01/04 10:16:00;;;;;;;1.13;0.50;;;12.90;99.90;;;;;;4958669;28;20428;-84
2023/01/04 10:18:50;;;;;;;1.83;0.60;;;12.90;99.90;;;;;;4958420;28;20439;-81
2023/01/04 10:21:32;;;;;;;1.77;0.60;;;12.90;99.90;;;;;;4975259;28;20455;-82
2023/01/04 10:24:10;;;;;;;1.37;0.60;;;12.90;99.90;;;;;;4958098;28;20447;-83
2023/01/04 10:26:45;;;;;;;2.40;0.80;;;12.80;99.90;;;;;;4958114;28;20439;-83
2023/01/04 10:29:42;;;;;;;0.80;0.67;;;12.80;99.90;;;;;;4975354;28;20415;-82
2023/01/04 10:32:23;;;;;;;2.30;0.90;;;12.60;99.90;;;;;;4975969;28;20404;-84
2023/01/04 10:34:49;;;;;;;0.80;0.77;;;12.50;99.90;;;;;;4958597;28;20522;-82
2023/01/04 10:37:32;;;;;;;3.90;1.00;;;12.40;99.90;;;;;;4958630;28;20446;-82
2023/01/04 10:39:58;;;;;;;2.10;0.63;;;12.40;99.90;;;;;;4958619;28;20216;-81
2023/01/04 10:42:37;;;;;;;2.80;0.80;;;12.40;99.90;;;;;;4956264;28;20195;-83
2023/01/04 10:45:21;;;;;;;0.87;0.60;;;12.30;99.90;;;;;;4973534;28;20160;-88
2023/01/04 10:48:05;;;;;;;2.13;0.70;;;12.30;99.90;;;;;;4973024;28;20411;-83
2023/01/04 10:50:37;;;;;;;1.70;0.90;;;12.30;99.90;;;;;;4957617;28;20427;-86
2023/01/04 10:53:14;;;;;;;3.50;0.70;;;12.30;99.90;;;;;;4947680;28;20929;-85
2023/01/04 10:55:53;;;;;;;1.17;0.80;;;12.30;99.90;;;;;;4976762;28;20500;-82
2023/01/04 10:58:30;;;;;;;1.50;0.77;;;12.30;99.90;;;;;;4961282;28;20423;-83
2023/01/04 11:01:29;;;;;;;0.97;0.77;;;12.40;99.90;;;;;;4979066;28;20447;-83
2023/01/04 11:04:02;;;;;;;2.63;1.57;;;12.30;99.90;;;;;;4957765;28;20939;-82
2023/01/04 11:06:39;;;;;;;2.25;1.00;;;12.30;99.90;;;;;;4958061;29;20519;-83
2023/01/04 11:09:19;;;;;;;1.30;0.90;;;12.30;99.90;;;;;;4959509;28;20561;-84
2023/01/04 11:11:46;;;;;;;0.80;0.57;;;12.40;99.90;;;;;;4959535;29;20756;-83
2023/01/04 11:14:13;;;;;;;1.37;0.80;;;12.40;99.90;;;;;;4958624;29;20433;-83
2023/01/04 11:16:41;;;;;;;0.87;0.63;;;12.40;99.90;;;;;;4956484;29;20463;-83
2023/01/04 11:19:09;;;;;;;1.00;0.90;;;12.40;99.90;;;;;;4957503;29;20510;-84
2023/01/04 11:21:50;;;;;;;0.70;0.60;;;12.40;99.90;;;;;;4958179;29;20464;-84
2023/01/04 11:24:16;;;;;;;0.83;0.53;;;12.50;99.90;;;;;;4958098;28;20412;-83
2023/01/04 11:26:45;;;;;;;0.97;0.50;;;12.50;99.90;;;;;;4958074;29;20436;-83
2023/01/04 11:29:35;;;;;;;0.67;0.50;;;12.60;99.90;;;;;;4957610;29;20428;-84
2023/01/04 11:32:15;;;;;;;2.00;0.57;;;12.60;99.90;;;;;;4949825;28;20475;-83
2023/01/04 11:34:46;;;;;;;0.60;0.50;;;12.70;99.90;;;;;;4957498;29;20416;-83
2023/01/04 11:37:29;;;;;;;0.70;0.50;;;12.70;99.90;;;;;;4958996;29;20421;-83
2023/01/04 11:40:24;;;;;;;0.83;0.50;;;12.80;99.90;;;;;;4956840;29;21032;-84
2023/01/04 11:42:51;;;;;;;2.00;0.87;;;12.80;99.90;;;;;;4950887;28;20967;-84
2023/01/04 11:45:25;;;;;;;1.17;0.50;;;12.80;99.90;;;;;;4955976;29;20429;-82
2023/01/04 11:47:54;;;;;;;0.90;0.60;;;12.80;99.90;;;;;;4956487;29;20207;-84
2023/01/04 11:50:42;;;;;;;0.80;0.60;;;12.90;99.90;;;;;;4937868;29;20429;-85
2023/01/04 11:53:22;;;;;;;0.90;0.50;;;12.90;99.90;;;;;;4953831;29;20435;-88
2023/01/04 11:55:47;;;;;;;0.70;0.50;;;12.90;99.90;;;;;;4956650;29;20452;-83
2023/01/04 11:58:15;;;;;;;0.60;0.50;;;12.90;99.90;;;;;;4957072;29;20443;-84
2023/01/04 12:01:01;;;;;;;1.83;0.60;;;12.90;99.90;;;;;;4957887;28;20208;-83
2023/01/04 12:03:34;;;;;;;0.60;0.50;;;13.00;99.90;;;;;;4957877;28;20444;-82
2023/01/04 12:06:01;;;;;;;2.30;0.80;;;12.90;99.90;;;;;;4969179;28;20479;-86
2023/01/04 12:08:36;;;;;;;0.60;0.50;;;12.90;99.90;;;;;;4976505;28;20407;-85
2023/01/04 12:11:04;;;;;;;0.70;0.50;;;13.00;99.90;;;;;;4973521;28;20788;-84
2023/01/04 12:13:32;;;;;;;1.23;0.50;;;13.00;99.90;;;;;;4976412;28;20482;-85
2023/01/04 12:16:23;;;;;;;1.37;0.40;;;13.00;99.90;;;;;;4977168;28;20416;-86
2023/01/04 12:18:49;;;;;;;0.70;0.50;;;13.00;99.90;;;;;;4959729;28;20779;-86
2023/01/04 12:21:21;;;;;;;0.67;0.47;;;12.90;99.90;;;;;;4944954;28;20573;-86
2023/01/04 12:23:47;;;;;;;0.50;0.40;;;12.90;99.90;;;;;;4959891;28;20424;-86
2023/01/04 12:26:14;;;;;;;0.60;0.50;;;12.90;99.90;;;;;;4959163;28;20448;-86
2023/01/04 12:28:43;;;;;;;0.50;0.40;;;12.90;99.90;;;;;;4943800;28;20428;-86
2023/01/04 12:31:17;;;;;;;1.03;0.50;;;12.80;99.90;;;;;;4959740;28;20434;-87
2023/01/04 12:33:45;;;;;;;1.57;0.57;;;12.80;99.90;;;;;;4956916;28;20423;-87
2023/01/04 12:36:16;;;;;;;0.60;0.50;;;12.80;99.90;;;;;;4956772;28;20408;-87
2023/01/04 12:38:51;;;;;;;0.60;0.50;;;12.90;99.90;;;;;;4952533;28;20433;-87
2023/01/04 12:41:22;;;;;;;1.00;0.50;;;12.90;99.90;;;;;;4971504;28;20454;-88
2023/01/04 12:43:49;;;;;;;0.70;0.60;;;12.90;99.90;;;;;;4957460;28;20455;-85
2023/01/04 12:49:26;;;;;;;0.70;0.50;;;13.00;99.90;;;;;;4975754;28;20395;-85
2023/01/04 12:52:07;;;;;;;0.60;0.40;;;13.00;99.90;;;;;;4977071;28;20411;-83
2023/01/04 12:54:50;;;;;;;0.83;0.50;;;13.00;99.90;;;;;;4976051;28;20415;-85
2023/01/04 12:57:15;;;;;;;0.50;0.40;;;13.00;99.90;;;;;;4959327;28;20419;-85
2023/01/04 13:00:05;;;;;;;0.60;0.50;;;13.00;99.90;;;;;;4959035;28;20462;-85
2023/01/04 13:02:35;;;;;;;0.50;0.40;;;13.00;99.90;;;;;;4958608;28;20187;-86
2023/01/04 13:05:31;;;;;;;0.63;0.50;;;13.00;99.90;;;;;;4976121;28;20502;-87
2023/01/04 13:07:59;;;;;;;0.60;0.40;;;13.00;99.90;;;;;;4957885;28;20591;-86
2023/01/04 13:10:35;;;;;;;0.70;0.50;;;13.00;99.90;;;;;;4958507;28;20427;-84
2023/01/04 13:13:18;;;;;;;0.60;0.40;;;12.90;99.90;;;;;;4974856;28;20429;-86
2023/01/04 13:16:23;;;;;;;0.50;0.40;;;12.80;99.90;;;;;;4939866;29;20432;-86
2023/01/04 13:18:53;;;;;;;1.80;0.60;;;12.80;99.90;;;;;;4939390;29;20425;-86
2023/01/04 13:21:42;;;;;;;0.60;0.40;;;12.70;99.90;;;;;;4956611;29;20488;-87
2023/01/04 13:24:33;;;;;;;0.60;0.50;;;12.70;99.90;;;;;;4939343;29;20495;-86
2023/01/04 13:27:13;;;;;;;0.60;0.40;;;12.70;99.90;;;;;;4940024;29;20507;-86
2023/01/04 13:29:40;;;;;;;1.00;0.50;;;12.70;99.90;;;;;;4939583;29;20608;-89
2023/01/04 13:32:21;;;;;;;0.60;0.50;;;12.70;99.90;;;;;;4956537;29;20204;-89
2023/01/04 13:34:52;;;;;;;0.60;0.50;;;12.70;99.90;;;;;;4957100;29;20181;-87
2023/01/04 13:37:29;;;;;;;0.80;0.50;;;12.70;99.90;;;;;;4939311;29;20234;-87
2023/01/04 13:40:20;;;;;;;0.50;0.40;;;12.60;99.90;;;;;;4938775;29;20302;-88
2023/01/04 13:42:55;;;;;;;0.50;0.40;;;12.60;99.90;;;;;;4956758;29;20405;-87
2023/01/04 13:45:42;;;;;;;0.70;0.50;;;12.60;99.90;;;;;;4939214;29;20820;-88
2023/01/04 13:48:12;;;;;;;1.17;0.70;;;12.50;99.90;;;;;;4940481;29;20424;-84
2023/01/04 13:50:45;;;;;;;0.60;0.47;;;12.50;99.90;;;;;;4940764;29;20267;-85
2023/01/04 13:53:26;;;;;;;1.17;0.50;;;12.50;99.90;;;;;;4939397;29;20180;-89
2023/01/04 13:55:54;;;;;;;0.70;0.50;;;12.50;99.90;;;;;;4938591;29;20688;-85
2023/01/04 13:58:22;;;;;;;0.60;0.50;;;12.50;99.90;;;;;;4956625;29;20445;-85